createdAt,value
2019-04-26T00:00:18.749Z,99.90
2019-04-26T00:02:49.989Z,99.90
2019-04-26T00:05:19.533Z,99.90
2019-04-26T00:07:49.408Z,99.90
2019-04-26T00:10:20.904Z,99.90
2019-04-26T00:12:55.236Z,99.90
2019-04-26T00:15:41.989Z,99.90
2019-04-26T00:18:12.808Z,99.90
2019-04-26T00:20:42.324Z,99.90
2019-04-26T00:23:12.047Z,99.90
2019-04-26T00:25:42.003Z,99.90
2019-04-26T00:28:12.834Z,99.90
2019-04-26T00:30:42.447Z,99.90
2019-04-26T00:33:12.393Z,99.90
2019-04-26T00:35:47.698Z,99.90
2019-04-26T00:38:14.243Z,99.90
2019-04-26T00:40:45.431Z,99.90
2019-04-26T00:43:14.990Z,99.90
2019-04-26T00:45:45.258Z,99.90
2019-04-26T00:48:16.870Z,99.90
2019-04-26T00:50:47.829Z,99.90
2019-04-26T00:53:19.540Z,99.90
2019-04-26T00:55:52.708Z,99.90
2019-04-26T00:58:24.405Z,99.90
2019-04-26T01:00:54.311Z,99.90
2019-04-26T01:03:23.741Z,99.90
2019-04-26T01:06:00.066Z,99.90
2019-04-26T01:08:26.155Z,99.90
2019-04-26T01:10:55.554Z,99.90
2019-04-26T01:13:26.112Z,99.90
2019-04-26T01:15:55.816Z,99.90
2019-04-26T01:18:26.403Z,99.90
2019-04-26T01:20:59.714Z,99.90
2019-04-26T01:23:31.021Z,99.90
2019-04-26T01:26:11.073Z,99.90
2019-04-26T01:28:50.903Z,99.90
2019-04-26T01:31:20.479Z,99.90
2019-04-26T01:33:50.427Z,99.90
2019-04-26T01:36:20.541Z,99.90
2019-04-26T01:38:53.208Z,99.90
2019-04-26T01:41:37.195Z,99.90
2019-04-26T01:44:14.682Z,99.90
2019-04-26T01:46:48.888Z,99.90
2019-04-26T01:49:22.334Z,99.90
2019-04-26T01:52:05.449Z,99.90
2019-04-26T01:54:41.423Z,99.90
2019-04-26T01:57:12.260Z,99.90
2019-04-26T01:59:47.465Z,99.90
2019-04-26T02:02:18.500Z,99.90
2019-04-26T02:04:50.220Z,99.90
2019-04-26T02:07:37.498Z,99.90
2019-04-26T02:10:17.073Z,99.90
2019-04-26T02:12:49.328Z,99.90
2019-04-26T02:15:22.981Z,99.90
2019-04-26T02:17:55.392Z,99.90
2019-04-26T02:20:56.934Z,99.90
2019-04-26T02:23:28.265Z,99.90
2019-04-26T02:25:59.314Z,99.90
2019-04-26T02:28:28.801Z,99.90
2019-04-26T02:30:58.393Z,99.90
2019-04-26T02:33:29.667Z,99.90
2019-04-26T02:35:59.224Z,99.90
2019-04-26T02:38:30.732Z,99.90
2019-04-26T02:41:00.401Z,99.90
2019-04-26T02:43:50.774Z,99.90
2019-04-26T02:46:28.435Z,99.90
2019-04-26T02:49:11.820Z,99.90
2019-04-26T02:52:00.338Z,99.90
2019-04-26T02:54:52.561Z,99.90
2019-04-26T02:57:31.012Z,99.90
2019-04-26T03:00:10.920Z,99.90
2019-04-26T03:02:40.705Z,99.90
2019-04-26T03:05:11.028Z,99.90
2019-04-26T03:07:56.962Z,99.90
2019-04-26T03:10:31.725Z,99.90
2019-04-26T03:13:04.893Z,99.90
2019-04-26T03:15:58.825Z,99.90
2019-04-26T03:18:41.531Z,99.90
2019-04-26T03:21:22.446Z,99.90
2019-04-26T03:24:05.332Z,99.90
2019-04-26T03:26:45.611Z,99.90
2019-04-26T03:29:22.344Z,99.90
2019-04-26T03:32:40.721Z,99.90
2019-04-26T03:35:22.165Z,99.90
2019-04-26T03:38:12.909Z,99.90
2019-04-26T03:40:54.360Z,99.90
2019-04-26T03:43:39.072Z,99.90
2019-04-26T03:46:29.813Z,99.90
2019-04-26T03:49:29.152Z,99.90
2019-04-26T03:52:11.894Z,99.90
2019-04-26T03:54:44.671Z,99.90
2019-04-26T03:58:04.525Z,99.90
2019-04-26T04:00:54.369Z,99.90
2019-04-26T04:03:50.264Z,99.90
2019-04-26T04:06:25.725Z,99.90
2019-04-26T04:09:07.735Z,99.90
2019-04-26T04:12:11.860Z,99.90
2019-04-26T04:14:50.405Z,99.90
2019-04-26T04:17:28.870Z,99.90
2019-04-26T04:20:16.434Z,99.90
2019-04-26T04:22:56.349Z,99.90
2019-04-26T04:25:30.838Z,99.90
2019-04-26T04:28:39.984Z,99.90
2019-04-26T04:31:31.774Z,99.90
2019-04-26T04:34:25.220Z,99.90
2019-04-26T04:36:59.412Z,99.90
2019-04-26T04:39:44.388Z,99.90
2019-04-26T04:42:45.460Z,99.90
2019-04-26T04:45:57.509Z,99.90
2019-04-26T04:49:15.566Z,99.90
2019-04-26T04:52:07.959Z,99.90
2019-04-26T04:55:07.776Z,99.90
2019-04-26T04:58:14.834Z,99.90
2019-04-26T05:01:23.837Z,99.90
2019-04-26T05:04:31.041Z,99.90
2019-04-26T05:07:31.652Z,99.90
2019-04-26T05:10:50.129Z,99.90
2019-04-26T05:13:43.774Z,99.90
2019-04-26T05:16:56.829Z,99.90
2019-04-26T05:19:54.782Z,99.90
2019-04-26T05:22:44.728Z,99.90
2019-04-26T05:25:51.452Z,99.90
2019-04-26T05:28:56.726Z,99.90
2019-04-26T05:31:47.070Z,99.90
2019-04-26T05:34:59.508Z,99.90
2019-04-26T05:37:55.194Z,99.90
2019-04-26T05:41:12.927Z,99.90
2019-04-26T05:43:54.573Z,99.90
2019-04-26T05:46:44.783Z,99.90
2019-04-26T05:49:50.247Z,99.90
2019-04-26T05:52:59.772Z,99.90
2019-04-26T05:56:03.192Z,99.90
2019-04-26T05:58:46.120Z,99.90
2019-04-26T06:02:04.159Z,99.90
2019-04-26T06:05:05.655Z,99.90
2019-04-26T06:08:03.663Z,99.90
2019-04-26T06:10:43.830Z,99.90
2019-04-26T06:13:54.183Z,99.90
2019-04-26T06:16:35.603Z,99.90
2019-04-26T06:19:29.431Z,99.90
2019-04-26T06:22:30.735Z,99.90
2019-04-26T06:25:28.923Z,99.90
2019-04-26T06:28:06.631Z,99.90
2019-04-26T06:30:59.383Z,99.90
2019-04-26T06:33:39.047Z,99.90
2019-04-26T06:36:12.537Z,99.90
2019-04-26T06:39:12.896Z,99.90
2019-04-26T06:42:13.838Z,99.90
2019-04-26T06:45:06.622Z,99.90
2019-04-26T06:47:56.884Z,99.90
2019-04-26T06:50:32.672Z,99.90
2019-04-26T06:53:27.622Z,99.90
2019-04-26T06:56:39.432Z,99.90
2019-04-26T06:59:36.294Z,99.90
2019-04-26T07:02:04.520Z,99.90
2019-04-26T07:05:09.320Z,99.90
2019-04-26T07:07:55.019Z,99.90
2019-04-26T07:11:11.765Z,99.90
2019-04-26T07:14:04.703Z,99.90
2019-04-26T07:16:56.666Z,99.90
2019-04-26T07:19:53.894Z,99.90
2019-04-26T07:22:47.103Z,99.90
2019-04-26T07:25:50.841Z,99.90
2019-04-26T07:28:46.620Z,99.90
2019-04-26T07:31:46.110Z,99.90
2019-04-26T07:35:10.124Z,99.90
2019-04-26T07:38:28.984Z,99.90
2019-04-26T07:41:39.250Z,99.90
2019-04-26T07:44:33.630Z,99.90
2019-04-26T07:47:34.294Z,99.90
2019-04-26T07:50:29.298Z,99.90
2019-04-26T07:53:21.140Z,99.90
2019-04-26T07:56:19.137Z,99.90
2019-04-26T07:59:24.410Z,99.90
2019-04-26T08:02:23.781Z,99.90
2019-04-26T08:05:15.742Z,99.90
2019-04-26T08:07:52.352Z,99.90
2019-04-26T08:10:23.787Z,99.90
2019-04-26T08:13:10.090Z,99.90
2019-04-26T08:15:54.511Z,99.90
2019-04-26T08:18:30.309Z,99.90
2019-04-26T08:21:10.055Z,99.90
2019-04-26T08:23:41.982Z,99.90
2019-04-26T08:26:13.424Z,99.90
2019-04-26T08:28:45.227Z,99.90
2019-04-26T08:31:21.202Z,99.90
2019-04-26T08:33:56.337Z,99.90
2019-04-26T08:36:28.715Z,99.90
2019-04-26T08:39:01.862Z,99.90
2019-04-26T08:41:31.608Z,99.90
2019-04-26T08:44:08.127Z,99.90
2019-04-26T08:46:42.048Z,99.90
2019-04-26T08:49:18.353Z,99.90
2019-04-26T08:51:52.183Z,99.90
2019-04-26T08:54:23.177Z,99.90
2019-04-26T08:57:03.237Z,99.90
2019-04-26T08:59:43.113Z,99.90
2019-04-26T09:02:20.519Z,99.90
2019-04-26T09:04:53.849Z,99.90
2019-04-26T09:07:31.132Z,99.90
2019-04-26T09:10:10.799Z,99.90
2019-04-26T09:12:36.774Z,99.90
2019-04-26T09:15:11.332Z,99.90
2019-04-26T09:17:41.081Z,99.90
2019-04-26T09:20:10.803Z,99.90
2019-04-26T09:22:47.625Z,99.90
2019-04-26T09:25:22.683Z,99.90
2019-04-26T09:27:54.235Z,99.90
2019-04-26T09:30:34.363Z,99.90
2019-04-26T09:33:06.633Z,99.90
2019-04-26T09:35:36.452Z,99.90
2019-04-26T09:38:06.001Z,99.90
2019-04-26T09:40:35.426Z,99.90
2019-04-26T09:43:10.655Z,99.90
2019-04-26T09:45:53.894Z,99.90
2019-04-26T09:48:27.481Z,99.90
2019-04-26T09:50:58.556Z,99.90
2019-04-26T09:53:27.959Z,99.90
2019-04-26T09:55:57.453Z,99.90
2019-04-26T09:58:30.422Z,99.90
2019-04-26T10:00:58.264Z,99.90
2019-04-26T10:03:27.727Z,99.90
2019-04-26T10:05:57.187Z,99.90
2019-04-26T10:08:26.764Z,99.90
2019-04-26T10:10:56.168Z,99.90
2019-04-26T10:13:27.256Z,99.90
2019-04-26T10:16:02.535Z,99.90
2019-04-26T10:18:32.045Z,99.90
2019-04-26T10:21:01.451Z,99.90
2019-04-26T10:23:30.841Z,99.90
2019-04-26T10:26:00.305Z,99.90
2019-04-26T10:28:29.958Z,99.90
2019-04-26T10:30:59.436Z,99.90
2019-04-26T10:33:28.850Z,99.90
2019-04-26T10:35:58.260Z,99.90
2019-04-26T10:38:27.945Z,99.90
2019-04-26T10:40:57.353Z,99.90
2019-04-26T10:43:29.304Z,99.90
2019-04-26T10:45:57.983Z,99.90
2019-04-26T10:48:27.457Z,99.90
2019-04-26T10:50:56.865Z,99.90
2019-04-26T10:53:43.531Z,99.90
2019-04-26T10:56:14.609Z,99.90
2019-04-26T10:58:54.392Z,99.90
2019-04-26T11:01:23.971Z,99.90
2019-04-26T11:03:53.376Z,99.90
2019-04-26T11:06:24.061Z,99.90
2019-04-26T11:08:54.181Z,99.90
2019-04-26T11:11:23.580Z,99.90
2019-04-26T11:13:53.008Z,99.90
2019-04-26T11:16:22.851Z,99.50
2019-04-26T11:18:52.599Z,99.90
2019-04-26T11:21:22.489Z,97.10
2019-04-26T11:23:51.921Z,97.00
2019-04-26T11:26:21.375Z,99.50
2019-04-26T11:28:51.425Z,99.10
2019-04-26T11:31:23.295Z,99.90
2019-04-26T11:34:04.450Z,97.20
2019-04-26T11:36:24.188Z,94.90
2019-04-26T11:38:53.689Z,96.90
2019-04-26T11:41:23.155Z,99.90
2019-04-26T11:43:53.003Z,99.90
2019-04-26T11:46:29.198Z,99.90
2019-04-26T11:48:59.187Z,99.90
2019-04-26T11:51:27.600Z,99.90
2019-04-26T11:53:57.216Z,99.70
2019-04-26T11:56:26.643Z,97.90
2019-04-26T11:58:56.917Z,96.40
2019-04-26T12:01:28.942Z,94.10
2019-04-26T12:04:00.800Z,96.50
2019-04-26T12:06:34.338Z,97.20
2019-04-26T12:09:07.153Z,98.70
2019-04-26T12:11:48.752Z,99.90
2019-04-26T12:14:19.724Z,99.30
2019-04-26T12:16:47.989Z,98.90
2019-04-26T12:19:10.243Z,99.90
2019-04-26T12:21:39.955Z,96.20
2019-04-26T12:24:09.442Z,95.50
2019-04-26T12:26:42.988Z,97.60
2019-04-26T12:29:10.550Z,98.80
2019-04-26T12:31:41.253Z,97.60
2019-04-26T12:34:14.182Z,97.90
2019-04-26T12:36:41.815Z,98.70
2019-04-26T12:39:12.950Z,99.90
2019-04-26T12:41:42.683Z,99.40
2019-04-26T12:44:12.874Z,96.70
2019-04-26T12:46:46.890Z,98.50
2019-04-26T12:49:20.367Z,96.40
2019-04-26T12:51:48.863Z,96.10
2019-04-26T12:54:19.087Z,97.30
2019-04-26T12:56:48.483Z,98.50
2019-04-26T12:59:17.892Z,96.00
2019-04-26T13:01:47.885Z,95.40
2019-04-26T13:04:17.408Z,93.10
2019-04-26T13:06:51.171Z,92.40
2019-04-26T13:09:21.978Z,97.00
2019-04-26T13:12:09.321Z,93.30
2019-04-26T13:14:44.327Z,95.40
2019-04-26T13:17:15.637Z,94.90
2019-04-26T13:19:45.033Z,96.00
2019-04-26T13:22:14.497Z,96.10
2019-04-26T13:24:43.881Z,95.70
2019-04-26T13:27:13.288Z,94.00
2019-04-26T13:29:42.699Z,92.90
2019-04-26T13:32:12.184Z,93.70
2019-04-26T13:34:41.578Z,91.80
2019-04-26T13:37:10.996Z,93.40
2019-04-26T13:39:40.420Z,91.50
2019-04-26T13:42:13.510Z,91.70
2019-04-26T13:44:54.516Z,91.20
2019-04-26T13:47:43.153Z,91.60
2019-04-26T13:50:17.039Z,92.40
2019-04-26T13:52:46.448Z,92.50
2019-04-26T13:55:15.871Z,92.20
2019-04-26T13:57:46.141Z,90.30
2019-04-26T14:00:17.736Z,91.80
2019-04-26T14:02:47.266Z,87.90
2019-04-26T14:05:17.024Z,92.60
2019-04-26T14:07:46.469Z,91.80
2019-04-26T14:10:16.019Z,90.50
2019-04-26T14:12:46.157Z,90.50
2019-04-26T14:15:16.784Z,92.20
2019-04-26T14:17:46.230Z,89.70
2019-04-26T14:20:19.286Z,85.80
2019-04-26T14:23:03.831Z,88.20
2019-04-26T14:25:37.843Z,89.60
2019-04-26T14:28:07.321Z,93.40
2019-04-26T14:30:37.358Z,92.50
2019-04-26T14:33:09.500Z,92.10
2019-04-26T14:35:38.937Z,92.60
2019-04-26T14:38:08.520Z,89.90
2019-04-26T14:40:39.296Z,90.50
2019-04-26T14:43:09.788Z,91.00
2019-04-26T14:45:40.033Z,91.20
2019-04-26T14:48:20.591Z,89.70
2019-04-26T14:50:42.319Z,89.90
2019-04-26T14:53:11.805Z,87.90
2019-04-26T14:55:41.238Z,88.00
2019-04-26T14:58:12.247Z,87.40
2019-04-26T15:00:43.833Z,88.50
2019-04-26T15:03:17.408Z,89.00
2019-04-26T15:05:54.023Z,87.00
2019-04-26T15:08:23.626Z,90.00
2019-04-26T15:11:00.653Z,90.70
2019-04-26T15:13:24.168Z,88.20
2019-04-26T15:15:54.074Z,90.50
2019-04-26T15:18:23.769Z,88.10
2019-04-26T15:20:56.813Z,86.60
2019-04-26T15:23:26.524Z,89.10
2019-04-26T15:25:58.406Z,89.10
2019-04-26T15:28:27.033Z,86.00
2019-04-26T15:30:56.444Z,90.30
2019-04-26T15:33:25.880Z,89.80
2019-04-26T15:35:55.272Z,86.90
2019-04-26T15:38:24.947Z,86.50
2019-04-26T15:41:05.583Z,87.60
2019-04-26T15:43:37.682Z,87.10
2019-04-26T15:46:12.468Z,84.40
2019-04-26T15:49:04.702Z,87.10
2019-04-26T15:51:35.189Z,86.10
2019-04-26T15:54:04.661Z,85.10
2019-04-26T15:56:34.159Z,86.60
2019-04-26T15:59:03.863Z,85.50
2019-04-26T16:01:33.414Z,86.70
2019-04-26T16:04:06.247Z,88.70
2019-04-26T16:06:37.391Z,90.50
2019-04-26T16:09:09.518Z,90.70
2019-04-26T16:11:42.813Z,87.80
2019-04-26T16:14:10.109Z,88.20
2019-04-26T16:16:39.529Z,87.10
2019-04-26T16:19:08.945Z,87.20
2019-04-26T16:21:38.363Z,89.00
2019-04-26T16:24:07.837Z,90.00
2019-04-26T16:26:37.333Z,90.00
2019-04-26T16:29:14.141Z,90.10
2019-04-26T16:31:49.726Z,91.10
2019-04-26T16:34:20.755Z,90.40
2019-04-26T16:36:50.170Z,90.30
2019-04-26T16:39:19.576Z,90.80
2019-04-26T16:41:48.992Z,92.00
2019-04-26T16:44:19.259Z,91.70
2019-04-26T16:46:54.033Z,91.10
2019-04-26T16:49:20.653Z,90.80
2019-04-26T16:51:54.512Z,90.80
2019-04-26T16:54:22.818Z,91.00
2019-04-26T16:56:52.707Z,93.10
2019-04-26T16:59:26.602Z,90.30
2019-04-26T17:01:53.731Z,91.60
2019-04-26T17:04:28.332Z,91.70
2019-04-26T17:06:54.272Z,92.30
2019-04-26T17:09:28.566Z,92.00
2019-04-26T17:11:54.898Z,91.50
2019-04-26T17:14:24.630Z,90.90
2019-04-26T17:16:54.311Z,92.00
2019-04-26T17:19:23.732Z,92.00
2019-04-26T17:22:00.999Z,92.10
2019-04-26T17:24:46.172Z,92.60
2019-04-26T17:27:14.933Z,93.40
2019-04-26T17:29:44.369Z,92.60
2019-04-26T17:32:17.326Z,93.30
2019-04-26T17:34:45.341Z,95.90
2019-04-26T17:37:17.255Z,98.00
2019-04-26T17:39:47.636Z,99.40
2019-04-26T17:42:17.099Z,99.90
2019-04-26T17:44:46.512Z,99.90
2019-04-26T17:47:16.279Z,99.90
2019-04-26T17:49:45.736Z,99.90
2019-04-26T17:52:15.167Z,99.90
2019-04-26T17:54:49.326Z,99.90
2019-04-26T17:57:34.857Z,99.90
2019-04-26T18:00:07.254Z,99.90
2019-04-26T18:02:41.148Z,99.90
2019-04-26T18:05:03.466Z,99.90
2019-04-26T18:07:42.919Z,99.90
2019-04-26T18:10:05.092Z,99.90
2019-04-26T18:12:39.359Z,99.90
2019-04-26T18:15:10.323Z,99.90
2019-04-26T18:17:40.456Z,99.90
2019-04-26T18:20:29.947Z,99.90
2019-04-26T18:23:05.636Z,99.90
2019-04-26T18:25:35.006Z,99.90
2019-04-26T18:28:04.774Z,99.90
2019-04-26T18:30:34.518Z,99.90
2019-04-26T18:33:05.545Z,99.90
2019-04-26T18:35:35.177Z,99.90
2019-04-26T18:38:08.578Z,99.90
2019-04-26T18:40:57.280Z,99.90
2019-04-26T18:43:07.160Z,99.90
2019-04-26T18:45:37.487Z,99.90
2019-04-26T18:48:07.054Z,99.90
2019-04-26T18:50:37.155Z,99.90
2019-04-26T18:53:15.634Z,99.90
2019-04-26T18:55:51.461Z,99.90
2019-04-26T18:58:30.297Z,99.90
2019-04-26T19:01:01.609Z,99.90
2019-04-26T19:03:38.654Z,99.90
2019-04-26T19:06:07.088Z,99.90
2019-04-26T19:08:45.422Z,99.90
2019-04-26T19:11:11.661Z,99.90
2019-04-26T19:13:56.483Z,99.90
2019-04-26T19:16:39.598Z,99.90
2019-04-26T19:19:22.716Z,99.90
2019-04-26T19:21:55.367Z,99.90
2019-04-26T19:24:24.831Z,99.90
2019-04-26T19:26:54.231Z,99.90
2019-04-26T19:29:32.642Z,99.90
2019-04-26T19:31:56.475Z,99.90
2019-04-26T19:34:29.831Z,99.90
2019-04-26T19:36:59.761Z,99.90
2019-04-26T19:39:32.302Z,99.90
2019-04-26T19:41:59.476Z,99.90
2019-04-26T19:44:28.967Z,99.90
2019-04-26T19:47:06.891Z,99.90
2019-04-26T19:49:54.155Z,99.90
2019-04-26T19:52:39.389Z,99.90
2019-04-26T19:55:25.279Z,99.90
2019-04-26T19:57:56.351Z,99.90
2019-04-26T20:00:26.064Z,99.90
2019-04-26T20:02:55.839Z,99.90
2019-04-26T20:05:25.349Z,99.90
2019-04-26T20:07:58.399Z,99.90
2019-04-26T20:10:25.956Z,99.90
2019-04-26T20:12:55.370Z,99.90
2019-04-26T20:15:26.716Z,99.90
2019-04-26T20:17:59.776Z,99.90
2019-04-26T20:20:27.818Z,99.90
2019-04-26T20:22:59.400Z,99.90
2019-04-26T20:25:29.971Z,99.90
2019-04-26T20:28:02.581Z,99.90
2019-04-26T20:30:45.094Z,99.90
2019-04-26T20:33:14.650Z,99.90
2019-04-26T20:35:44.061Z,99.90
2019-04-26T20:38:13.491Z,99.90
2019-04-26T20:40:43.394Z,99.90
2019-04-26T20:43:23.764Z,99.90
2019-04-26T20:46:07.953Z,99.90
2019-04-26T20:48:16.287Z,99.90
2019-04-26T20:50:45.783Z,99.90
2019-04-26T20:53:15.190Z,99.90
2019-04-26T20:55:47.076Z,99.90
2019-04-26T20:58:16.093Z,99.90
2019-04-26T21:00:54.171Z,99.90
2019-04-26T21:03:23.632Z,99.90
2019-04-26T21:05:52.749Z,99.90
2019-04-26T21:08:19.567Z,99.90
2019-04-26T21:10:50.122Z,99.90
2019-04-26T21:13:19.535Z,99.90
2019-04-26T21:15:57.763Z,99.90
2019-04-26T21:18:21.173Z,99.90
2019-04-26T21:20:52.150Z,99.90
2019-04-26T21:23:22.279Z,99.90
2019-04-26T21:26:02.982Z,99.90
2019-04-26T21:28:38.144Z,99.90
2019-04-26T21:31:21.547Z,99.90
2019-04-26T21:34:12.527Z,99.90
2019-04-26T21:36:59.051Z,99.90
2019-04-26T21:39:39.460Z,99.90
2019-04-26T21:42:08.830Z,99.90
2019-04-26T21:44:38.231Z,99.90
2019-04-26T21:47:07.772Z,99.90
2019-04-26T21:49:38.144Z,99.90
2019-04-26T21:52:07.599Z,99.90
2019-04-26T21:54:37.050Z,99.90
2019-04-26T21:57:06.451Z,99.90
2019-04-26T21:59:40.800Z,99.90
2019-04-26T22:02:08.815Z,99.90
2019-04-26T22:04:38.307Z,99.90
2019-04-26T22:07:07.942Z,99.90
2019-04-26T22:09:45.008Z,99.90
2019-04-26T22:12:16.074Z,99.90
2019-04-26T22:14:50.802Z,99.90
2019-04-26T22:17:24.283Z,99.90
2019-04-26T22:19:58.110Z,99.90
2019-04-26T22:22:29.184Z,99.90
2019-04-26T22:25:03.783Z,99.90
2019-04-26T22:27:33.283Z,99.90
2019-04-26T22:30:04.403Z,99.90
2019-04-26T22:32:33.808Z,99.90
2019-04-26T22:35:03.400Z,99.90
2019-04-26T22:37:33.745Z,99.90
2019-04-26T22:40:03.822Z,99.90
2019-04-26T22:42:39.885Z,99.90
2019-04-26T22:45:10.545Z,99.90
2019-04-26T22:47:44.777Z,99.90
2019-04-26T22:50:21.002Z,99.90
2019-04-26T22:52:51.294Z,99.90
2019-04-26T22:55:24.219Z,99.90
2019-04-26T22:57:49.606Z,99.90
2019-04-26T23:00:19.817Z,99.90
2019-04-26T23:02:50.159Z,99.90
2019-04-26T23:05:20.092Z,99.90
2019-04-26T23:07:49.576Z,99.90
2019-04-26T23:10:19.237Z,99.90
2019-04-26T23:12:50.291Z,99.90
2019-04-26T23:15:30.074Z,99.90
2019-04-26T23:18:17.856Z,99.90
2019-04-26T23:20:48.913Z,99.90
2019-04-26T23:23:18.296Z,99.90
2019-04-26T23:25:47.797Z,99.90
2019-04-26T23:28:17.188Z,99.90
2019-04-26T23:30:46.801Z,99.90
2019-04-26T23:33:16.201Z,99.90
2019-04-26T23:35:47.587Z,99.90
2019-04-26T23:38:16.804Z,99.90
2019-04-26T23:40:46.204Z,99.90
2019-04-26T23:43:15.639Z,99.90
2019-04-26T23:45:48.191Z,99.90
2019-04-26T23:48:16.167Z,99.90
2019-04-26T23:50:45.577Z,99.90
2019-04-26T23:53:14.984Z,99.90
2019-04-26T23:55:45.326Z,99.90
2019-04-26T23:58:14.778Z,99.90
